sensor_id;sensor_type;location;lat;lon;timestamp;temperature;humidity
69932;DHT22;57243;52.064;5.116;2023-04-25T00:01:03;16.80;64.90
69932;DHT22;57243;52.064;5.116;2023-04-25T00:03:29;16.80;64.90
69932;DHT22;57243;52.064;5.116;2023-04-25T00:05:54;16.80;64.90
69932;DHT22;57243;52.064;5.116;2023-04-25T00:08:22;16.80;64.80
69932;DHT22;57243;52.064;5.116;2023-04-25T00:10:47;16.80;64.90
69932;DHT22;57243;52.064;5.116;2023-04-25T00:13:14;16.80;64.70
69932;DHT22;57243;52.064;5.116;2023-04-25T00:15:40;16.80;64.70
69932;DHT22;57243;52.064;5.116;2023-04-25T00:18:07;16.80;64.80
69932;DHT22;57243;52.064;5.116;2023-04-25T00:20:32;16.80;64.70
69932;DHT22;57243;52.064;5.116;2023-04-25T00:22:58;16.80;64.30
69932;DHT22;57243;52.064;5.116;2023-04-25T00:25:23;16.70;64.60
69932;DHT22;57243;52.064;5.116;2023-04-25T00:27:49;16.70;64.60
69932;DHT22;57243;52.064;5.116;2023-04-25T00:30:14;16.70;64.60
69932;DHT22;57243;52.064;5.116;2023-04-25T00:32:40;16.70;64.60
69932;DHT22;57243;52.064;5.116;2023-04-25T00:35:05;16.70;64.60
69932;DHT22;57243;52.064;5.116;2023-04-25T00:37:31;16.70;64.40
69932;DHT22;57243;52.064;5.116;2023-04-25T00:39:57;16.70;64.50
69932;DHT22;57243;52.064;5.116;2023-04-25T00:42:23;16.70;64.50
69932;DHT22;57243;52.064;5.116;2023-04-25T00:44:49;16.70;64.50
69932;DHT22;57243;52.064;5.116;2023-04-25T00:47:15;16.70;64.60
69932;DHT22;57243;52.064;5.116;2023-04-25T00:49:41;16.70;64.40
69932;DHT22;57243;52.064;5.116;2023-04-25T00:52:07;16.70;64.40
69932;DHT22;57243;52.064;5.116;2023-04-25T00:54:32;16.70;64.40
69932;DHT22;57243;52.064;5.116;2023-04-25T00:56:58;16.70;64.40
69932;DHT22;57243;52.064;5.116;2023-04-25T00:59:23;16.70;64.50
69932;DHT22;57243;52.064;5.116;2023-04-25T01:01:49;16.70;64.40
69932;DHT22;57243;52.064;5.116;2023-04-25T01:04:15;16.70;64.50
69932;DHT22;57243;52.064;5.116;2023-04-25T01:06:40;16.70;64.50
69932;DHT22;57243;52.064;5.116;2023-04-25T01:09:06;16.70;64.50
69932;DHT22;57243;52.064;5.116;2023-04-25T01:11:32;16.70;64.40
69932;DHT22;57243;52.064;5.116;2023-04-25T01:13:57;16.70;64.50
69932;DHT22;57243;52.064;5.116;2023-04-25T01:16:23;16.70;64.50
69932;DHT22;57243;52.064;5.116;2023-04-25T01:18:52;16.70;64.50
69932;DHT22;57243;52.064;5.116;2023-04-25T01:21:17;16.70;64.40
69932;DHT22;57243;52.064;5.116;2023-04-25T01:23:43;16.70;64.50
69932;DHT22;57243;52.064;5.116;2023-04-25T01:26:09;16.70;64.40
69932;DHT22;57243;52.064;5.116;2023-04-25T01:28:35;16.70;64.50
69932;DHT22;57243;52.064;5.116;2023-04-25T01:31:01;16.70;64.50
69932;DHT22;57243;52.064;5.116;2023-04-25T01:33:26;16.70;64.40
69932;DHT22;57243;52.064;5.116;2023-04-25T01:35:52;16.70;64.50
69932;DHT22;57243;52.064;5.116;2023-04-25T01:38:17;16.70;64.40
69932;DHT22;57243;52.064;5.116;2023-04-25T01:40:43;16.70;64.40
69932;DHT22;57243;52.064;5.116;2023-04-25T01:43:09;16.70;64.50
69932;DHT22;57243;52.064;5.116;2023-04-25T01:45:38;16.70;64.40
69932;DHT22;57243;52.064;5.116;2023-04-25T01:48:09;16.70;64.50
69932;DHT22;57243;52.064;5.116;2023-04-25T01:50:36;16.70;64.50
69932;DHT22;57243;52.064;5.116;2023-04-25T01:53:02;16.70;64.60
69932;DHT22;57243;52.064;5.116;2023-04-25T01:55:28;16.70;64.50
69932;DHT22;57243;52.064;5.116;2023-04-25T01:57:54;16.70;64.50
69932;DHT22;57243;52.064;5.116;2023-04-25T02:00:20;16.70;64.50
69932;DHT22;57243;52.064;5.116;2023-04-25T02:02:46;16.70;64.50
69932;DHT22;57243;52.064;5.116;2023-04-25T02:05:11;16.70;64.50
69932;DHT22;57243;52.064;5.116;2023-04-25T02:07:36;16.70;64.50
69932;DHT22;57243;52.064;5.116;2023-04-25T02:10:03;16.70;64.50
69932;DHT22;57243;52.064;5.116;2023-04-25T02:12:28;16.70;64.50
69932;DHT22;57243;52.064;5.116;2023-04-25T02:14:54;16.70;64.40
69932;DHT22;57243;52.064;5.116;2023-04-25T02:17:19;16.70;64.50
69932;DHT22;57243;52.064;5.116;2023-04-25T02:19:47;16.70;64.40
69932;DHT22;57243;52.064;5.116;2023-04-25T02:22:12;16.70;64.50
69932;DHT22;57243;52.064;5.116;2023-04-25T02:24:38;16.70;64.40
69932;DHT22;57243;52.064;5.116;2023-04-25T02:27:03;16.70;64.50
69932;DHT22;57243;52.064;5.116;2023-04-25T02:29:29;16.70;64.50
69932;DHT22;57243;52.064;5.116;2023-04-25T02:31:55;16.70;64.50
69932;DHT22;57243;52.064;5.116;2023-04-25T02:34:20;16.70;64.60
69932;DHT22;57243;52.064;5.116;2023-04-25T02:36:48;16.70;64.60
69932;DHT22;57243;52.064;5.116;2023-04-25T02:39:13;16.70;64.50
69932;DHT22;57243;52.064;5.116;2023-04-25T02:41:39;16.60;64.60
69932;DHT22;57243;52.064;5.116;2023-04-25T02:44:05;16.60;64.60
69932;DHT22;57243;52.064;5.116;2023-04-25T02:46:30;16.70;64.60
69932;DHT22;57243;52.064;5.116;2023-04-25T02:48:56;16.60;64.60
69932;DHT22;57243;52.064;5.116;2023-04-25T02:51:21;16.60;64.60
69932;DHT22;57243;52.064;5.116;2023-04-25T02:53:46;16.60;64.50
69932;DHT22;57243;52.064;5.116;2023-04-25T02:56:12;16.60;64.60
69932;DHT22;57243;52.064;5.116;2023-04-25T02:58:37;16.60;64.60
69932;DHT22;57243;52.064;5.116;2023-04-25T03:01:03;16.60;64.50
69932;DHT22;57243;52.064;5.116;2023-04-25T03:03:28;16.60;64.70
69932;DHT22;57243;52.064;5.116;2023-04-25T03:05:54;16.60;64.70
69932;DHT22;57243;52.064;5.116;2023-04-25T03:08:19;16.60;64.70
69932;DHT22;57243;52.064;5.116;2023-04-25T03:10:45;16.60;64.60
69932;DHT22;57243;52.064;5.116;2023-04-25T03:13:11;16.60;64.60
69932;DHT22;57243;52.064;5.116;2023-04-25T03:15:36;16.60;64.60
69932;DHT22;57243;52.064;5.116;2023-04-25T03:18:02;16.60;64.60
69932;DHT22;57243;52.064;5.116;2023-04-25T03:20:27;16.60;64.60
69932;DHT22;57243;52.064;5.116;2023-04-25T03:22:53;16.60;64.60
69932;DHT22;57243;52.064;5.116;2023-04-25T03:25:18;16.60;64.60
69932;DHT22;57243;52.064;5.116;2023-04-25T03:27:44;16.60;64.10
69932;DHT22;57243;52.064;5.116;2023-04-25T03:30:09;16.60;63.70
69932;DHT22;57243;52.064;5.116;2023-04-25T03:32:35;16.50;63.00
69932;DHT22;57243;52.064;5.116;2023-04-25T03:35:00;16.50;64.00
69932;DHT22;57243;52.064;5.116;2023-04-25T03:37:26;16.50;64.10
69932;DHT22;57243;52.064;5.116;2023-04-25T03:39:51;16.50;64.30
69932;DHT22;57243;52.064;5.116;2023-04-25T03:42:17;16.50;64.20
69932;DHT22;57243;52.064;5.116;2023-04-25T03:44:43;16.50;64.40
69932;DHT22;57243;52.064;5.116;2023-04-25T03:47:08;16.50;64.20
69932;DHT22;57243;52.064;5.116;2023-04-25T03:49:34;16.60;64.20
69932;DHT22;57243;52.064;5.116;2023-04-25T03:51:59;16.60;64.30
69932;DHT22;57243;52.064;5.116;2023-04-25T03:54:25;16.60;64.40
69932;DHT22;57243;52.064;5.116;2023-04-25T03:56:51;16.60;64.30
69932;DHT22;57243;52.064;5.116;2023-04-25T03:59:16;16.60;64.50
69932;DHT22;57243;52.064;5.116;2023-04-25T04:01:42;16.60;64.40
69932;DHT22;57243;52.064;5.116;2023-04-25T04:04:07;16.60;64.50
69932;DHT22;57243;52.064;5.116;2023-04-25T04:06:33;16.60;64.50
69932;DHT22;57243;52.064;5.116;2023-04-25T04:08:59;16.60;64.60
69932;DHT22;57243;52.064;5.116;2023-04-25T04:11:24;16.70;65.50
69932;DHT22;57243;52.064;5.116;2023-04-25T04:13:50;16.80;65.60
69932;DHT22;57243;52.064;5.116;2023-04-25T04:16:15;16.80;65.10
69932;DHT22;57243;52.064;5.116;2023-04-25T04:18:41;16.70;64.90
69932;DHT22;57243;52.064;5.116;2023-04-25T04:21:06;16.70;64.90
69932;DHT22;57243;52.064;5.116;2023-04-25T04:23:32;16.70;65.10
69932;DHT22;57243;52.064;5.116;2023-04-25T04:25:57;16.70;65.20
69932;DHT22;57243;52.064;5.116;2023-04-25T04:28:23;16.60;65.20
69932;DHT22;57243;52.064;5.116;2023-04-25T04:30:48;16.70;65.30
69932;DHT22;57243;52.064;5.116;2023-04-25T04:33:16;16.80;65.20
69932;DHT22;57243;52.064;5.116;2023-04-25T04:35:44;16.80;65.10
69932;DHT22;57243;52.064;5.116;2023-04-25T04:38:09;16.80;65.00
69932;DHT22;57243;52.064;5.116;2023-04-25T04:40:36;16.80;64.60
69932;DHT22;57243;52.064;5.116;2023-04-25T04:43:02;16.80;64.90
69932;DHT22;57243;52.064;5.116;2023-04-25T04:45:28;16.70;65.00
69932;DHT22;57243;52.064;5.116;2023-04-25T04:47:53;16.70;65.10
69932;DHT22;57243;52.064;5.116;2023-04-25T04:50:20;16.70;65.20
69932;DHT22;57243;52.064;5.116;2023-04-25T04:52:46;16.70;65.30
69932;DHT22;57243;52.064;5.116;2023-04-25T04:55:11;16.60;65.30
69932;DHT22;57243;52.064;5.116;2023-04-25T04:57:36;16.60;65.30
69932;DHT22;57243;52.064;5.116;2023-04-25T05:00:04;16.60;65.30
69932;DHT22;57243;52.064;5.116;2023-04-25T05:02:39;16.60;65.20
69932;DHT22;57243;52.064;5.116;2023-04-25T05:05:05;16.60;65.30
69932;DHT22;57243;52.064;5.116;2023-04-25T05:07:30;16.60;65.20
69932;DHT22;57243;52.064;5.116;2023-04-25T05:09:56;16.60;65.30
69932;DHT22;57243;52.064;5.116;2023-04-25T05:12:21;16.60;65.40
69932;DHT22;57243;52.064;5.116;2023-04-25T05:14:47;16.60;65.40
69932;DHT22;57243;52.064;5.116;2023-04-25T05:17:12;16.60;65.30
69932;DHT22;57243;52.064;5.116;2023-04-25T05:19:38;16.60;65.20
69932;DHT22;57243;52.064;5.116;2023-04-25T05:22:04;16.60;65.00
69932;DHT22;57243;52.064;5.116;2023-04-25T05:24:30;16.60;64.90
69932;DHT22;57243;52.064;5.116;2023-04-25T05:26:56;16.50;64.60
69932;DHT22;57243;52.064;5.116;2023-04-25T05:29:21;16.50;64.70
69932;DHT22;57243;52.064;5.116;2023-04-25T05:31:47;16.50;64.60
69932;DHT22;57243;52.064;5.116;2023-04-25T05:34:13;16.60;64.60
69932;DHT22;57243;52.064;5.116;2023-04-25T05:36:38;16.60;64.70
69932;DHT22;57243;52.064;5.116;2023-04-25T05:39:04;16.60;64.80
69932;DHT22;57243;52.064;5.116;2023-04-25T05:41:31;16.60;64.60
69932;DHT22;57243;52.064;5.116;2023-04-25T05:43:56;16.50;64.70
69932;DHT22;57243;52.064;5.116;2023-04-25T05:46:22;16.50;64.70
69932;DHT22;57243;52.064;5.116;2023-04-25T05:48:47;16.50;64.80
69932;DHT22;57243;52.064;5.116;2023-04-25T05:51:13;16.50;64.70
69932;DHT22;57243;52.064;5.116;2023-04-25T05:53:38;16.50;64.60
69932;DHT22;57243;52.064;5.116;2023-04-25T05:56:04;16.50;65.20
69932;DHT22;57243;52.064;5.116;2023-04-25T05:58:29;16.60;66.00
69932;DHT22;57243;52.064;5.116;2023-04-25T06:00:55;16.70;66.20
69932;DHT22;57243;52.064;5.116;2023-04-25T06:03:20;16.70;66.10
69932;DHT22;57243;52.064;5.116;2023-04-25T06:05:46;16.80;65.60
69932;DHT22;57243;52.064;5.116;2023-04-25T06:08:12;16.80;65.40
69932;DHT22;57243;52.064;5.116;2023-04-25T06:10:37;16.70;65.20
69932;DHT22;57243;52.064;5.116;2023-04-25T06:13:03;16.70;65.30
69932;DHT22;57243;52.064;5.116;2023-04-25T06:15:29;16.60;65.30
69932;DHT22;57243;52.064;5.116;2023-04-25T06:17:55;16.60;65.40
69932;DHT22;57243;52.064;5.116;2023-04-25T06:20:20;16.60;65.40
69932;DHT22;57243;52.064;5.116;2023-04-25T06:22:48;16.60;65.20
69932;DHT22;57243;52.064;5.116;2023-04-25T06:25:14;16.60;65.10
69932;DHT22;57243;52.064;5.116;2023-04-25T06:27:40;16.60;65.10
69932;DHT22;57243;52.064;5.116;2023-04-25T06:30:06;16.60;65.10
69932;DHT22;57243;52.064;5.116;2023-04-25T06:32:31;16.60;65.00
69932;DHT22;57243;52.064;5.116;2023-04-25T06:34:57;16.60;65.00
69932;DHT22;57243;52.064;5.116;2023-04-25T06:37:23;16.60;64.90
69932;DHT22;57243;52.064;5.116;2023-04-25T06:39:48;16.60;64.80
69932;DHT22;57243;52.064;5.116;2023-04-25T06:42:14;16.60;64.90
69932;DHT22;57243;52.064;5.116;2023-04-25T06:44:40;16.60;64.80
69932;DHT22;57243;52.064;5.116;2023-04-25T06:47:05;16.60;64.60
69932;DHT22;57243;52.064;5.116;2023-04-25T06:49:31;16.60;64.60
69932;DHT22;57243;52.064;5.116;2023-04-25T06:51:56;16.60;63.80
69932;DHT22;57243;52.064;5.116;2023-04-25T06:54:22;16.60;64.40
69932;DHT22;57243;52.064;5.116;2023-04-25T06:56:47;16.60;64.40
69932;DHT22;57243;52.064;5.116;2023-04-25T06:59:13;16.60;64.40
69932;DHT22;57243;52.064;5.116;2023-04-25T07:01:38;16.60;64.50
69932;DHT22;57243;52.064;5.116;2023-04-25T07:04:04;16.70;64.50
69932;DHT22;57243;52.064;5.116;2023-04-25T07:06:30;16.70;64.30
69932;DHT22;57243;52.064;5.116;2023-04-25T07:08:56;16.70;64.30
69932;DHT22;57243;52.064;5.116;2023-04-25T07:11:21;16.70;64.30
69932;DHT22;57243;52.064;5.116;2023-04-25T07:13:47;16.70;64.20
69932;DHT22;57243;52.064;5.116;2023-04-25T07:16:12;16.70;64.20
69932;DHT22;57243;52.064;5.116;2023-04-25T07:18:38;16.70;64.30
69932;DHT22;57243;52.064;5.116;2023-04-25T07:21:03;16.70;64.20
69932;DHT22;57243;52.064;5.116;2023-04-25T07:23:29;16.70;64.10
69932;DHT22;57243;52.064;5.116;2023-04-25T07:25:55;16.70;64.00
69932;DHT22;57243;52.064;5.116;2023-04-25T07:28:21;16.70;63.90
69932;DHT22;57243;52.064;5.116;2023-04-25T07:30:47;16.60;63.90
69932;DHT22;57243;52.064;5.116;2023-04-25T07:33:12;16.60;63.90
69932;DHT22;57243;52.064;5.116;2023-04-25T07:35:38;16.60;63.70
69932;DHT22;57243;52.064;5.116;2023-04-25T07:38:03;16.60;63.60
69932;DHT22;57243;52.064;5.116;2023-04-25T07:40:29;16.60;63.90
69932;DHT22;57243;52.064;5.116;2023-04-25T07:42:55;16.60;63.90
69932;DHT22;57243;52.064;5.116;2023-04-25T07:45:20;16.60;63.40
69932;DHT22;57243;52.064;5.116;2023-04-25T07:47:46;16.60;63.80
69932;DHT22;57243;52.064;5.116;2023-04-25T07:50:11;16.60;63.80
69932;DHT22;57243;52.064;5.116;2023-04-25T07:52:37;16.60;63.80
69932;DHT22;57243;52.064;5.116;2023-04-25T07:55:02;16.60;63.90
69932;DHT22;57243;52.064;5.116;2023-04-25T07:57:28;16.70;64.30
69932;DHT22;57243;52.064;5.116;2023-04-25T07:59:54;16.70;64.70
69932;DHT22;57243;52.064;5.116;2023-04-25T08:02:20;16.80;65.20
69932;DHT22;57243;52.064;5.116;2023-04-25T08:04:45;16.90;65.30
69932;DHT22;57243;52.064;5.116;2023-04-25T08:07:11;16.90;64.70
69932;DHT22;57243;52.064;5.116;2023-04-25T08:09:37;16.90;63.80
69932;DHT22;57243;52.064;5.116;2023-04-25T08:12:03;16.80;64.10
69932;DHT22;57243;52.064;5.116;2023-04-25T08:14:29;16.80;64.20
69932;DHT22;57243;52.064;5.116;2023-04-25T08:17:01;16.80;64.20
69932;DHT22;57243;52.064;5.116;2023-04-25T08:19:26;16.80;63.60
69932;DHT22;57243;52.064;5.116;2023-04-25T08:21:52;16.80;63.70
69932;DHT22;57243;52.064;5.116;2023-04-25T08:24:17;16.80;64.00
69932;DHT22;57243;52.064;5.116;2023-04-25T08:26:43;16.80;63.90
69932;DHT22;57243;52.064;5.116;2023-04-25T08:29:08;16.80;63.50
69932;DHT22;57243;52.064;5.116;2023-04-25T08:31:34;16.80;63.40
69932;DHT22;57243;52.064;5.116;2023-04-25T08:33:59;16.80;63.80
69932;DHT22;57243;52.064;5.116;2023-04-25T08:36:25;16.80;63.70
69932;DHT22;57243;52.064;5.116;2023-04-25T08:38:50;16.80;63.50
69932;DHT22;57243;52.064;5.116;2023-04-25T08:41:16;16.80;63.20
69932;DHT22;57243;52.064;5.116;2023-04-25T08:43:43;16.80;62.70
69932;DHT22;57243;52.064;5.116;2023-04-25T08:46:11;16.80;62.30
69932;DHT22;57243;52.064;5.116;2023-04-25T08:48:37;16.80;62.30
69932;DHT22;57243;52.064;5.116;2023-04-25T08:51:05;16.80;61.60
69932;DHT22;57243;52.064;5.116;2023-04-25T08:53:32;16.80;61.30
69932;DHT22;57243;52.064;5.116;2023-04-25T08:55:58;16.80;62.10
69932;DHT22;57243;52.064;5.116;2023-04-25T08:58:24;16.80;62.30
69932;DHT22;57243;52.064;5.116;2023-04-25T09:00:50;16.80;62.20
69932;DHT22;57243;52.064;5.116;2023-04-25T09:03:16;16.80;61.50
69932;DHT22;57243;52.064;5.116;2023-04-25T09:05:42;16.80;61.30
69932;DHT22;57243;52.064;5.116;2023-04-25T09:08:08;16.80;60.80
69932;DHT22;57243;52.064;5.116;2023-04-25T09:10:34;16.80;60.90
69932;DHT22;57243;52.064;5.116;2023-04-25T09:13:03;16.80;60.90
69932;DHT22;57243;52.064;5.116;2023-04-25T09:15:30;16.80;60.20
69932;DHT22;57243;52.064;5.116;2023-04-25T09:17:56;16.70;60.60
69932;DHT22;57243;52.064;5.116;2023-04-25T09:20:21;16.70;60.30
69932;DHT22;57243;52.064;5.116;2023-04-25T09:22:47;16.70;61.20
69932;DHT22;57243;52.064;5.116;2023-04-25T09:25:13;16.70;61.10
69932;DHT22;57243;52.064;5.116;2023-04-25T09:27:49;16.80;60.80
69932;DHT22;57243;52.064;5.116;2023-04-25T09:30:15;16.80;61.80
69932;DHT22;57243;52.064;5.116;2023-04-25T09:32:42;16.80;61.90
69932;DHT22;57243;52.064;5.116;2023-04-25T09:35:08;16.80;58.30
69932;DHT22;57243;52.064;5.116;2023-04-25T09:37:34;16.80;58.50
69932;DHT22;57243;52.064;5.116;2023-04-25T09:40:00;16.90;62.60
69932;DHT22;57243;52.064;5.116;2023-04-25T09:42:31;16.90;59.30
69932;DHT22;57243;52.064;5.116;2023-04-25T09:44:57;16.90;62.40
69932;DHT22;57243;52.064;5.116;2023-04-25T09:47:24;17.00;61.80
69932;DHT22;57243;52.064;5.116;2023-04-25T09:49:50;16.90;62.50
69932;DHT22;57243;52.064;5.116;2023-04-25T09:52:19;16.90;62.20
69932;DHT22;57243;52.064;5.116;2023-04-25T09:54:45;16.90;61.70
69932;DHT22;57243;52.064;5.116;2023-04-25T09:57:21;16.90;62.70
69932;DHT22;57243;52.064;5.116;2023-04-25T10:02:14;16.80;62.10
69932;DHT22;57243;52.064;5.116;2023-04-25T10:04:40;16.80;62.30
69932;DHT22;57243;52.064;5.116;2023-04-25T10:07:06;16.80;62.70
69932;DHT22;57243;52.064;5.116;2023-04-25T10:09:32;16.80;62.90
69932;DHT22;57243;52.064;5.116;2023-04-25T10:12:00;16.70;62.70
69932;DHT22;57243;52.064;5.116;2023-04-25T10:14:26;16.70;62.20
69932;DHT22;57243;52.064;5.116;2023-04-25T10:16:53;16.70;62.60
69932;DHT22;57243;52.064;5.116;2023-04-25T10:19:21;16.70;62.60
69932;DHT22;57243;52.064;5.116;2023-04-25T10:22:07;16.70;62.40
69932;DHT22;57243;52.064;5.116;2023-04-25T10:24:33;16.70;62.50
69932;DHT22;57243;52.064;5.116;2023-04-25T10:27:00;16.70;62.50
69932;DHT22;57243;52.064;5.116;2023-04-25T10:29:27;16.70;62.00
69932;DHT22;57243;52.064;5.116;2023-04-25T10:31:52;16.70;62.10
69932;DHT22;57243;52.064;5.116;2023-04-25T10:34:18;16.70;61.90
69932;DHT22;57243;52.064;5.116;2023-04-25T10:36:49;16.70;59.00
69932;DHT22;57243;52.064;5.116;2023-04-25T10:39:15;16.70;58.90
69932;DHT22;57243;52.064;5.116;2023-04-25T10:41:46;16.70;60.90
69932;DHT22;57243;52.064;5.116;2023-04-25T10:44:13;16.70;60.70
69932;DHT22;57243;52.064;5.116;2023-04-25T10:46:39;16.70;60.40
69932;DHT22;57243;52.064;5.116;2023-04-25T10:49:04;16.70;60.60
69932;DHT22;57243;52.064;5.116;2023-04-25T10:51:33;16.70;60.50
69932;DHT22;57243;52.064;5.116;2023-04-25T10:56:25;16.70;61.20
69932;DHT22;57243;52.064;5.116;2023-04-25T10:58:51;16.70;61.20
69932;DHT22;57243;52.064;5.116;2023-04-25T11:01:27;16.90;62.60
69932;DHT22;57243;52.064;5.116;2023-04-25T11:04:00;17.00;63.10
69932;DHT22;57243;52.064;5.116;2023-04-25T11:06:29;17.10;63.40
69932;DHT22;57243;52.064;5.116;2023-04-25T11:08:59;17.20;63.80
69932;DHT22;57243;52.064;5.116;2023-04-25T11:11:25;17.20;61.40
69932;DHT22;57243;52.064;5.116;2023-04-25T11:13:51;17.20;62.40
69932;DHT22;57243;52.064;5.116;2023-04-25T11:16:17;17.10;58.70
69932;DHT22;57243;52.064;5.116;2023-04-25T11:18:43;16.90;56.80
69932;DHT22;57243;52.064;5.116;2023-04-25T11:21:09;16.80;58.60
69932;DHT22;57243;52.064;5.116;2023-04-25T11:23:34;16.70;60.60
69932;DHT22;57243;52.064;5.116;2023-04-25T11:26:00;16.80;58.10
69932;DHT22;57243;52.064;5.116;2023-04-25T11:28:26;16.80;60.80
69932;DHT22;57243;52.064;5.116;2023-04-25T11:30:52;16.90;61.40
69932;DHT22;57243;52.064;5.116;2023-04-25T11:33:17;16.90;60.90
69932;DHT22;57243;52.064;5.116;2023-04-25T11:35:43;16.90;61.60
69932;DHT22;57243;52.064;5.116;2023-04-25T11:38:09;16.90;61.60
69932;DHT22;57243;52.064;5.116;2023-04-25T11:40:37;16.90;61.60
69932;DHT22;57243;52.064;5.116;2023-04-25T11:43:03;16.90;61.50
69932;DHT22;57243;52.064;5.116;2023-04-25T11:45:28;16.90;60.90
69932;DHT22;57243;52.064;5.116;2023-04-25T11:47:55;16.90;61.40
69932;DHT22;57243;52.064;5.116;2023-04-25T11:50:21;16.90;61.00
69932;DHT22;57243;52.064;5.116;2023-04-25T11:52:47;16.90;61.20
69932;DHT22;57243;52.064;5.116;2023-04-25T11:55:16;16.90;61.00
69932;DHT22;57243;52.064;5.116;2023-04-25T11:57:43;16.80;57.90
69932;DHT22;57243;52.064;5.116;2023-04-25T12:00:13;16.80;58.50
69932;DHT22;57243;52.064;5.116;2023-04-25T12:02:41;16.70;55.40
69932;DHT22;57243;52.064;5.116;2023-04-25T12:05:07;16.60;54.90
69932;DHT22;57243;52.064;5.116;2023-04-25T12:07:34;16.50;55.70
69932;DHT22;57243;52.064;5.116;2023-04-25T12:10:03;16.40;54.60
69932;DHT22;57243;52.064;5.116;2023-04-25T12:12:32;16.30;55.50
69932;DHT22;57243;52.064;5.116;2023-04-25T12:15:07;16.30;55.80
69932;DHT22;57243;52.064;5.116;2023-04-25T12:17:33;16.30;56.30
69932;DHT22;57243;52.064;5.116;2023-04-25T12:19:59;16.40;57.40
69932;DHT22;57243;52.064;5.116;2023-04-25T12:22:25;16.50;58.10
69932;DHT22;57243;52.064;5.116;2023-04-25T12:24:50;16.60;58.20
69932;DHT22;57243;52.064;5.116;2023-04-25T12:27:18;16.60;56.30
69932;DHT22;57243;52.064;5.116;2023-04-25T12:29:54;16.50;56.70
69932;DHT22;57243;52.064;5.116;2023-04-25T12:32:21;16.50;55.90
69932;DHT22;57243;52.064;5.116;2023-04-25T12:34:46;16.60;56.30
69932;DHT22;57243;52.064;5.116;2023-04-25T12:37:12;16.60;54.90
69932;DHT22;57243;52.064;5.116;2023-04-25T12:39:38;16.50;53.90
69932;DHT22;57243;52.064;5.116;2023-04-25T12:42:03;16.60;54.70
69932;DHT22;57243;52.064;5.116;2023-04-25T12:44:29;16.70;56.50
69932;DHT22;57243;52.064;5.116;2023-04-25T12:46:54;16.70;54.50
69932;DHT22;57243;52.064;5.116;2023-04-25T12:49:20;16.70;54.30
69932;DHT22;57243;52.064;5.116;2023-04-25T12:51:46;16.70;54.10
69932;DHT22;57243;52.064;5.116;2023-04-25T12:54:12;16.80;60.90
69932;DHT22;57243;52.064;5.116;2023-04-25T12:56:37;16.90;60.20
69932;DHT22;57243;52.064;5.116;2023-04-25T12:59:03;16.90;59.90
69932;DHT22;57243;52.064;5.116;2023-04-25T13:01:29;16.90;60.20
69932;DHT22;57243;52.064;5.116;2023-04-25T13:03:55;16.90;60.20
69932;DHT22;57243;52.064;5.116;2023-04-25T13:06:21;16.90;60.50
69932;DHT22;57243;52.064;5.116;2023-04-25T13:08:46;16.90;60.80
69932;DHT22;57243;52.064;5.116;2023-04-25T13:11:12;16.90;59.70
69932;DHT22;57243;52.064;5.116;2023-04-25T13:13:40;16.90;59.50
69932;DHT22;57243;52.064;5.116;2023-04-25T13:16:05;16.90;60.00
69932;DHT22;57243;52.064;5.116;2023-04-25T13:18:32;16.90;59.60
69932;DHT22;57243;52.064;5.116;2023-04-25T13:20:58;16.90;58.80
69932;DHT22;57243;52.064;5.116;2023-04-25T13:23:26;16.90;58.00
69932;DHT22;57243;52.064;5.116;2023-04-25T13:25:52;16.90;60.10
69932;DHT22;57243;52.064;5.116;2023-04-25T13:28:18;16.90;59.90
69932;DHT22;57243;52.064;5.116;2023-04-25T13:30:43;16.90;60.30
69932;DHT22;57243;52.064;5.116;2023-04-25T13:33:09;16.90;60.70
69932;DHT22;57243;52.064;5.116;2023-04-25T13:35:35;16.90;60.70
69932;DHT22;57243;52.064;5.116;2023-04-25T13:38:01;16.90;60.60
69932;DHT22;57243;52.064;5.116;2023-04-25T13:40:27;16.90;60.60
69932;DHT22;57243;52.064;5.116;2023-04-25T13:42:53;16.90;59.30
69932;DHT22;57243;52.064;5.116;2023-04-25T13:45:20;17.00;59.00
69932;DHT22;57243;52.064;5.116;2023-04-25T13:47:45;16.90;58.70
69932;DHT22;57243;52.064;5.116;2023-04-25T13:50:11;16.90;60.10
69932;DHT22;57243;52.064;5.116;2023-04-25T13:52:37;16.90;60.70
69932;DHT22;57243;52.064;5.116;2023-04-25T13:55:03;16.90;60.00
69932;DHT22;57243;52.064;5.116;2023-04-25T13:57:32;16.90;60.40
69932;DHT22;57243;52.064;5.116;2023-04-25T13:59:58;17.00;60.30
69932;DHT22;57243;52.064;5.116;2023-04-25T14:02:24;17.10;60.70
69932;DHT22;57243;52.064;5.116;2023-04-25T14:04:50;17.10;61.30
69932;DHT22;57243;52.064;5.116;2023-04-25T14:07:15;17.20;59.80
69932;DHT22;57243;52.064;5.116;2023-04-25T14:09:41;17.20;60.10
69932;DHT22;57243;52.064;5.116;2023-04-25T14:12:07;17.20;61.00
69932;DHT22;57243;52.064;5.116;2023-04-25T14:14:32;17.20;60.90
69932;DHT22;57243;52.064;5.116;2023-04-25T14:16:58;17.30;60.50
69932;DHT22;57243;52.064;5.116;2023-04-25T14:19:24;17.30;61.00
69932;DHT22;57243;52.064;5.116;2023-04-25T14:21:49;17.30;61.20
69932;DHT22;57243;52.064;5.116;2023-04-25T14:24:15;17.30;61.20
69932;DHT22;57243;52.064;5.116;2023-04-25T14:26:41;17.30;61.30
69932;DHT22;57243;52.064;5.116;2023-04-25T14:29:07;17.30;61.50
69932;DHT22;57243;52.064;5.116;2023-04-25T14:31:34;17.30;59.90
69932;DHT22;57243;52.064;5.116;2023-04-25T14:33:59;17.30;59.60
69932;DHT22;57243;52.064;5.116;2023-04-25T14:36:25;17.20;58.50
69932;DHT22;57243;52.064;5.116;2023-04-25T14:38:51;17.20;57.90
69932;DHT22;57243;52.064;5.116;2023-04-25T14:41:17;17.20;58.80
69932;DHT22;57243;52.064;5.116;2023-04-25T14:43:42;17.20;57.40
69932;DHT22;57243;52.064;5.116;2023-04-25T14:46:08;17.30;58.30
69932;DHT22;57243;52.064;5.116;2023-04-25T14:48:34;17.40;58.50
69932;DHT22;57243;52.064;5.116;2023-04-25T14:50:59;17.50;57.50
69932;DHT22;57243;52.064;5.116;2023-04-25T14:53:25;17.40;56.40
69932;DHT22;57243;52.064;5.116;2023-04-25T14:55:52;17.40;57.30
69932;DHT22;57243;52.064;5.116;2023-04-25T14:58:17;17.40;58.50
69932;DHT22;57243;52.064;5.116;2023-04-25T15:00:43;17.40;55.60
69932;DHT22;57243;52.064;5.116;2023-04-25T15:03:09;17.30;56.60
69932;DHT22;57243;52.064;5.116;2023-04-25T15:05:36;17.20;58.50
69932;DHT22;57243;52.064;5.116;2023-04-25T15:08:02;17.30;59.70
69932;DHT22;57243;52.064;5.116;2023-04-25T15:10:28;17.30;57.80
69932;DHT22;57243;52.064;5.116;2023-04-25T15:12:54;17.30;58.80
69932;DHT22;57243;52.064;5.116;2023-04-25T15:15:19;17.30;56.70
69932;DHT22;57243;52.064;5.116;2023-04-25T15:17:45;17.20;56.80
69932;DHT22;57243;52.064;5.116;2023-04-25T15:20:11;17.20;58.30
69932;DHT22;57243;52.064;5.116;2023-04-25T15:22:39;17.20;58.50
69932;DHT22;57243;52.064;5.116;2023-04-25T15:25:04;17.20;57.80
69932;DHT22;57243;52.064;5.116;2023-04-25T15:27:31;17.20;56.40